EZS73BL LFRN-LSGG
Flight info
| Callsign | EZS73BL |
|---|---|
| Flight time | N/A |
| Altitude | 28000 |
| Route | SABLE H34 KOVAK H20 DOMOD A3 MOTAL R11 BALMU A6 DJL |
| Aircraft | A320/M-SDE3FGHIRWY/LB1 |
Departure
| Time | 2026-04-21 18:17 |
|---|---|
| Airport | Rennes-Saint-Jacques Airport (LFRN) |
Arrival
| Time | N/A |
|---|---|
| Airport | Geneva International Airport (LSGG) |
| Time | Latitude | Longitude | Altitude | Speed | Heading |
|---|---|---|---|---|---|
| 2026-04-21 17:56 | 48.06947 | -1.72818 | 133 ft | 0 kts | 280° |
| 2026-04-21 18:13 | 48.06947 | -1.72819 | 133 ft | 0 kts | 280° |
| 2026-04-21 18:13 | 48.06957 | -1.72894 | 133 ft | 18 kts | 281° |
| 2026-04-21 18:14 | 48.07066 | -1.73407 | 128 ft | 27 kts | 282° |
| 2026-04-21 18:14 | 48.07193 | -1.73575 | 121 ft | 26 kts | 327° |
| 2026-04-21 18:14 | 48.07278 | -1.73826 | 114 ft | 30 kts | 274° |
| 2026-04-21 18:15 | 48.07310 | -1.74148 | 103 ft | 32 kts | 284° |
| 2026-04-21 18:15 | 48.07356 | -1.74478 | 92 ft | 35 kts | 281° |
| 2026-04-21 18:15 | 48.07352 | -1.74586 | 88 ft | 3 kts | 149° |
| 2026-04-21 18:15 | 48.07349 | -1.74579 | 89 ft | 0 kts | 120° |
| 2026-04-21 18:16 | 48.07356 | -1.74493 | 94 ft | 22 kts | 101° |
| 2026-04-21 18:16 | 48.07298 | -1.74097 | 104 ft | 68 kts | 99° |
| 2026-04-21 18:16 | 48.07169 | -1.73038 | 134 ft | 138 kts | 100° |
| 2026-04-21 18:17 | 48.06977 | -1.71491 | 724 ft | 153 kts | 99° |
| 2026-04-21 18:17 | 48.06787 | -1.69914 | 1632 ft | 156 kts | 98° |
| 2026-04-21 18:17 | 48.06557 | -1.68313 | 2263 ft | 162 kts | 99° |
| 2026-04-21 18:17 | 48.06307 | -1.66546 | 2608 ft | 185 kts | 99° |
| 2026-04-21 18:18 | 48.06024 | -1.64538 | 2985 ft | 209 kts | 99° |
| 2026-04-21 18:18 | 48.05711 | -1.62329 | 3467 ft | 228 kts | 100° |
| 2026-04-21 18:18 | 48.05372 | -1.59949 | 4257 ft | 237 kts | 101° |
| 2026-04-21 18:18 | 48.05023 | -1.57509 | 5109 ft | 242 kts | 101° |
| 2026-04-21 18:19 | 48.04666 | -1.55005 | 5881 ft | 251 kts | 101° |
| 2026-04-21 18:19 | 48.04296 | -1.52425 | 6630 ft | 259 kts | 100° |
| 2026-04-21 18:19 | 48.03910 | -1.49745 | 7311 ft | 268 kts | 101° |
| 2026-04-21 18:19 | 48.03520 | -1.47026 | 8066 ft | 274 kts | 101° |
| 2026-04-21 18:20 | 48.03113 | -1.44192 | 8802 ft | 281 kts | 102° |
| 2026-04-21 18:20 | 48.02694 | -1.41283 | 9517 ft | 289 kts | 102° |
| 2026-04-21 18:20 | 48.02265 | -1.38315 | 10219 ft | 296 kts | 101° |
| 2026-04-21 18:20 | 48.01814 | -1.35199 | 10540 ft | 318 kts | 101° |
| 2026-04-21 18:21 | 48.01338 | -1.31886 | 10757 ft | 341 kts | 101° |
| 2026-04-21 18:21 | 48.00827 | -1.28331 | 11179 ft | 355 kts | 101° |
| 2026-04-21 18:21 | 48.00300 | -1.24684 | 11859 ft | 360 kts | 102° |
| 2026-04-21 18:21 | 47.99767 | -1.21009 | 12455 ft | 368 kts | 101° |
| 2026-04-21 18:22 | 47.99214 | -1.17221 | 13064 ft | 374 kts | 102° |
| 2026-04-21 18:22 | 47.98656 | -1.13432 | 13761 ft | 379 kts | 102° |
| 2026-04-21 18:22 | 47.98085 | -1.09574 | 14357 ft | 383 kts | 102° |
| 2026-04-21 18:22 | 47.97512 | -1.05697 | 14908 ft | 388 kts | 102° |
| 2026-04-21 18:23 | 47.96926 | -1.01729 | 15531 ft | 391 kts | 102° |
| 2026-04-21 18:23 | 47.96335 | -0.97740 | 16187 ft | 393 kts | 101° |
| 2026-04-21 18:23 | 47.95748 | -0.93775 | 16741 ft | 398 kts | 102° |
| 2026-04-21 18:23 | 47.95139 | -0.89689 | 17324 ft | 402 kts | 102° |
| 2026-04-21 18:24 | 47.94534 | -0.85631 | 17925 ft | 405 kts | 102° |
| 2026-04-21 18:24 | 47.93914 | -0.81487 | 18475 ft | 409 kts | 102° |
| 2026-04-21 18:24 | 47.93292 | -0.77356 | 18947 ft | 413 kts | 102° |
| 2026-04-21 18:24 | 47.92653 | -0.73125 | 19423 ft | 417 kts | 102° |
| 2026-04-21 18:25 | 47.92020 | -0.68921 | 19873 ft | 420 kts | 101° |
| 2026-04-21 18:25 | 47.91378 | -0.64651 | 20350 ft | 424 kts | 101° |
| 2026-04-21 18:25 | 47.90736 | -0.60376 | 20809 ft | 427 kts | 101° |
| 2026-04-21 18:25 | 47.90080 | -0.56036 | 21266 ft | 431 kts | 101° |
| 2026-04-21 18:26 | 47.89410 | -0.51634 | 21714 ft | 435 kts | 101° |
| 2026-04-21 18:26 | 47.88734 | -0.47214 | 22161 ft | 438 kts | 101° |
| 2026-04-21 18:26 | 47.88052 | -0.42761 | 22595 ft | 441 kts | 101° |
| 2026-04-21 18:26 | 47.87370 | -0.38325 | 23016 ft | 445 kts | 101° |
| 2026-04-21 18:27 | 47.86673 | -0.33809 | 23437 ft | 448 kts | 101° |
| 2026-04-21 18:27 | 47.86021 | -0.29232 | 23816 ft | 451 kts | 97° |
| 2026-04-21 18:27 | 47.85771 | -0.24611 | 24154 ft | 451 kts | 87° |
| 2026-04-21 18:27 | 47.85997 | -0.19935 | 24522 ft | 451 kts | 78° |
| 2026-04-21 18:28 | 47.86596 | -0.15348 | 24873 ft | 452 kts | 75° |
| 2026-04-21 18:28 | 47.87214 | -0.10801 | 25224 ft | 454 kts | 76° |
| 2026-04-21 18:28 | 47.87834 | -0.06142 | 25572 ft | 457 kts | 76° |
| 2026-04-21 18:28 | 47.88444 | -0.01488 | 25914 ft | 460 kts | 76° |
| 2026-04-21 18:29 | 47.89057 | 0.03221 | 26255 ft | 463 kts | 76° |
| 2026-04-21 18:29 | 47.89663 | 0.07890 | 26562 ft | 465 kts | 76° |
| 2026-04-21 18:29 | 47.90278 | 0.12636 | 26902 ft | 468 kts | 76° |
| 2026-04-21 18:29 | 47.90898 | 0.17428 | 27230 ft | 470 kts | 76° |
| 2026-04-21 18:30 | 47.91517 | 0.22234 | 27555 ft | 473 kts | 76° |
| 2026-04-21 18:30 | 47.92138 | 0.27076 | 27884 ft | 475 kts | 76° |
| 2026-04-21 18:30 | 47.92760 | 0.31933 | 28060 ft | 475 kts | 76° |
| 2026-04-21 18:31 | 47.93962 | 0.41444 | 28086 ft | 465 kts | 76° |
| 2026-04-21 18:31 | 47.95151 | 0.50937 | 28086 ft | 464 kts | 76° |
| 2026-04-21 18:32 | 47.96331 | 0.60430 | 28087 ft | 464 kts | 76° |
| 2026-04-21 18:32 | 47.97494 | 0.69851 | 28099 ft | 464 kts | 76° |
| 2026-04-21 18:33 | 47.98481 | 0.79391 | 28093 ft | 467 kts | 84° |
| 2026-04-21 18:33 | 47.98382 | 0.84256 | 28092 ft | 470 kts | 95° |
| 2026-04-21 18:33 | 47.97771 | 0.89056 | 28110 ft | 473 kts | 104° |
| 2026-04-21 18:34 | 47.95771 | 0.96660 | 28086 ft | 475 kts | 113° |
| 2026-04-21 18:34 | 47.93093 | 1.05694 | 28085 ft | 475 kts | 113° |
| 2026-04-21 18:35 | 47.90419 | 1.14705 | 28085 ft | 476 kts | 113° |
| 2026-04-21 18:35 | 47.87750 | 1.23660 | 28081 ft | 476 kts | 113° |
| 2026-04-21 18:36 | 47.85049 | 1.32678 | 28089 ft | 476 kts | 113° |
| 2026-04-21 18:36 | 47.82329 | 1.41706 | 28079 ft | 477 kts | 113° |
| 2026-04-21 18:37 | 47.79619 | 1.50651 | 28074 ft | 478 kts | 113° |
| 2026-04-21 18:37 | 47.76876 | 1.59676 | 28068 ft | 478 kts | 114° |
| 2026-04-21 18:38 | 47.74133 | 1.68673 | 28102 ft | 478 kts | 113° |
| 2026-04-21 18:38 | 47.71405 | 1.77633 | 28083 ft | 478 kts | 113° |
| 2026-04-21 18:39 | 47.68642 | 1.86644 | 28072 ft | 479 kts | 113° |
| 2026-04-21 18:39 | 47.65862 | 1.95649 | 28068 ft | 479 kts | 114° |
| 2026-04-21 18:40 | 47.63088 | 2.04595 | 28071 ft | 480 kts | 114° |
| 2026-04-21 18:40 | 47.60295 | 2.13600 | 28087 ft | 480 kts | 111° |
| 2026-04-21 18:41 | 47.58665 | 2.23087 | 28072 ft | 473 kts | 91° |
| 2026-04-21 18:41 | 47.58977 | 2.32631 | 28066 ft | 463 kts | 74° |
| 2026-04-21 18:42 | 47.60137 | 2.42038 | 28072 ft | 464 kts | 75° |
| 2026-04-21 18:42 | 47.61258 | 2.51467 | 28108 ft | 465 kts | 74° |
| 2026-04-21 18:43 | 47.62371 | 2.60905 | 28091 ft | 465 kts | 74° |
| 2026-04-21 18:43 | 47.63492 | 2.70368 | 28084 ft | 465 kts | 74° |
| 2026-04-21 18:44 | 47.64610 | 2.79833 | 28087 ft | 466 kts | 74° |
| 2026-04-21 18:44 | 47.65717 | 2.89262 | 28080 ft | 466 kts | 74° |
| 2026-04-21 18:45 | 47.66818 | 2.98729 | 28099 ft | 466 kts | 74° |
| 2026-04-21 18:45 | 47.67903 | 3.08174 | 28093 ft | 466 kts | 74° |
| 2026-04-21 18:46 | 47.68982 | 3.17667 | 28084 ft | 466 kts | 74° |
| 2026-04-21 18:46 | 47.70058 | 3.27165 | 28088 ft | 466 kts | 74° |
| 2026-04-21 18:47 | 47.71129 | 3.36606 | 28123 ft | 466 kts | 74° |
| 2026-04-21 18:47 | 47.72187 | 3.46110 | 28101 ft | 467 kts | 74° |
| 2026-04-21 18:48 | 47.73244 | 3.55631 | 28091 ft | 467 kts | 74° |
| 2026-04-21 18:48 | 47.74295 | 3.65167 | 28086 ft | 467 kts | 74° |
| 2026-04-21 18:49 | 47.75332 | 3.74673 | 28108 ft | 468 kts | 74° |
| 2026-04-21 18:49 | 47.76193 | 3.82623 | 28103 ft | 468 kts | 74° |
| 2026-04-21 18:50 | 47.77395 | 3.93752 | 28104 ft | 468 kts | 74° |
| 2026-04-21 18:50 | 47.78412 | 4.03322 | 28104 ft | 469 kts | 75° |
| 2026-04-21 18:51 | 47.79419 | 4.12917 | 28104 ft | 469 kts | 75° |
| 2026-04-21 18:51 | 47.80420 | 4.22501 | 28133 ft | 469 kts | 74° |
| 2026-04-21 18:52 | 47.81420 | 4.32090 | 28122 ft | 469 kts | 74° |